Aviation Digital Data Service (ADDS)

Output produced by METARs form (1710 UTC 29 May 2017)
found at http://www.aviationweather.gov/adds/metars/
 
TAF HBBA 290900Z 2912/3018 18010G20KT 9999 FEW035 SCT100 
     BECMG2915/297 00000KT CAVOK 
     BECMG3002/3004 36002KT 9999 FEW025 
     BECMG3007/3009 18010G20KT 9999 FEW035 SCT100 
     BECMG3015/3017 00000KT CAVOK